createdAt,value
2023-12-29T00:00:51.031Z,23.50
2023-12-29T00:03:38.194Z,23.98
2023-12-29T00:06:05.477Z,22.10
2023-12-29T00:08:32.684Z,19.20
2023-12-29T00:11:00.079Z,18.75
2023-12-29T00:13:27.162Z,19.70
2023-12-29T00:15:54.734Z,21.00
2023-12-29T00:18:22.080Z,21.27
2023-12-29T00:20:50.085Z,18.48
2023-12-29T00:23:32.970Z,18.08
2023-12-29T00:25:59.769Z,17.52
2023-12-29T00:28:27.057Z,19.02
2023-12-29T00:31:01.114Z,18.25
2023-12-29T00:33:30.995Z,16.75
2023-12-29T00:35:58.213Z,13.70
2023-12-29T00:38:27.528Z,17.92
2023-12-29T00:40:54.399Z,17.92
2023-12-29T00:43:22.163Z,16.83
2023-12-29T00:45:49.024Z,15.20
2023-12-29T00:48:16.253Z,16.40
2023-12-29T00:50:43.505Z,16.10
2023-12-29T00:53:10.595Z,15.13
2023-12-29T00:55:37.746Z,14.40
2023-12-29T00:58:05.160Z,11.68
2023-12-29T01:00:32.196Z,14.23
2023-12-29T01:02:59.431Z,15.35
2023-12-29T01:05:26.472Z,14.20
2023-12-29T01:07:53.916Z,13.27
2023-12-29T01:10:20.765Z,15.20
2023-12-29T01:12:48.902Z,15.30
2023-12-29T01:15:15.999Z,14.50
2023-12-29T01:17:43.395Z,15.00
2023-12-29T01:20:10.637Z,14.88
2023-12-29T01:22:37.719Z,14.18
2023-12-29T01:25:04.867Z,13.27
2023-12-29T01:27:32.168Z,14.93
2023-12-29T01:29:59.026Z,12.02
2023-12-29T01:32:26.275Z,13.75
2023-12-29T01:34:53.959Z,12.07
2023-12-29T01:37:21.332Z,14.90
2023-12-29T01:39:48.221Z,13.32
2023-12-29T01:42:15.410Z,14.05
2023-12-29T01:44:42.196Z,12.90
2023-12-29T01:47:15.342Z,14.07
2023-12-29T01:49:42.256Z,14.43
2023-12-29T01:52:09.687Z,13.50
2023-12-29T01:54:39.247Z,13.52
2023-12-29T01:57:06.932Z,12.48
2023-12-29T01:59:33.772Z,12.20
2023-12-29T02:02:00.954Z,14.43
2023-12-29T02:04:28.326Z,13.65
2023-12-29T02:06:56.064Z,11.68
2023-12-29T02:09:23.353Z,14.90
2023-12-29T02:11:50.491Z,12.63
2023-12-29T02:14:17.756Z,15.80
2023-12-29T02:16:44.820Z,12.27
2023-12-29T02:19:26.756Z,12.40
2023-12-29T02:21:53.946Z,13.77
2023-12-29T02:24:20.919Z,11.80
2023-12-29T02:26:49.297Z,12.50
2023-12-29T02:29:16.068Z,11.45
2023-12-29T02:31:43.174Z,10.40
2023-12-29T02:34:12.035Z,11.30
2023-12-29T02:36:43.936Z,11.88
2023-12-29T02:39:11.291Z,9.93
2023-12-29T02:41:39.408Z,11.13
2023-12-29T02:44:06.275Z,11.35
2023-12-29T02:46:33.614Z,11.38
2023-12-29T02:49:00.574Z,11.93
2023-12-29T02:51:27.716Z,10.80
2023-12-29T02:53:54.506Z,12.68
2023-12-29T02:56:21.601Z,11.88
2023-12-29T02:58:49.324Z,12.70
2023-12-29T03:01:16.662Z,12.02
2023-12-29T03:03:44.715Z,11.80
2023-12-29T03:06:11.914Z,13.13
2023-12-29T03:08:38.705Z,17.20
2023-12-29T03:11:05.842Z,17.17
2023-12-29T03:13:32.695Z,15.50
2023-12-29T03:15:59.911Z,19.58
2023-12-29T03:18:26.786Z,17.73
2023-12-29T03:20:54.212Z,15.13
2023-12-29T03:23:20.987Z,13.30
2023-12-29T03:25:48.107Z,14.05
2023-12-29T03:28:15.149Z,15.50
2023-12-29T03:30:42.411Z,15.15
2023-12-29T03:33:09.314Z,16.47
2023-12-29T03:35:36.427Z,14.77
2023-12-29T03:38:03.999Z,16.67
2023-12-29T03:40:31.311Z,14.98
2023-12-29T03:42:58.177Z,15.48
2023-12-29T03:45:25.261Z,15.88
2023-12-29T03:47:52.123Z,14.13
2023-12-29T03:50:19.349Z,13.55
2023-12-29T03:52:46.105Z,12.40
2023-12-29T03:55:13.572Z,15.65
2023-12-29T03:57:40.460Z,12.18
2023-12-29T04:00:08.301Z,10.98
2023-12-29T04:02:35.134Z,12.68
2023-12-29T04:05:02.704Z,10.18
2023-12-29T04:07:29.760Z,14.10
2023-12-29T04:09:56.931Z,11.60
2023-12-29T04:12:23.758Z,10.27
2023-12-29T04:14:50.823Z,12.68
2023-12-29T04:17:17.869Z,12.20
2023-12-29T04:19:45.111Z,11.02
2023-12-29T04:22:12.005Z,14.23
2023-12-29T04:24:39.225Z,11.55
2023-12-29T04:27:06.000Z,14.30
2023-12-29T04:29:33.076Z,15.45
2023-12-29T04:31:59.912Z,12.93
2023-12-29T04:34:27.069Z,13.98
2023-12-29T04:36:53.919Z,12.98
2023-12-29T04:39:21.007Z,12.15
2023-12-29T04:41:47.901Z,12.65
2023-12-29T04:44:15.046Z,11.13
2023-12-29T04:46:41.882Z,13.20
2023-12-29T04:49:09.352Z,12.50
2023-12-29T04:51:36.226Z,13.55
2023-12-29T04:54:03.439Z,13.20
2023-12-29T04:56:30.455Z,11.13
2023-12-29T04:58:57.903Z,13.05
2023-12-29T05:01:24.826Z,12.65
2023-12-29T05:03:52.045Z,13.43
2023-12-29T05:06:18.921Z,11.52
2023-12-29T05:08:45.970Z,11.50
2023-12-29T05:11:12.820Z,11.20
2023-12-29T05:13:39.926Z,12.60
2023-12-29T05:16:07.145Z,10.63
2023-12-29T05:18:34.437Z,12.23
2023-12-29T05:21:01.302Z,13.43
2023-12-29T05:23:28.534Z,13.13
2023-12-29T05:25:55.311Z,11.48
2023-12-29T05:28:22.465Z,13.45
2023-12-29T05:30:49.400Z,13.23
2023-12-29T05:33:16.846Z,13.73
2023-12-29T05:35:43.682Z,19.33
2023-12-29T05:38:10.780Z,18.75
2023-12-29T05:40:37.606Z,20.58
2023-12-29T05:43:05.035Z,22.13
2023-12-29T05:45:31.883Z,25.05
2023-12-29T05:47:59.276Z,23.60
2023-12-29T05:50:26.179Z,22.67
2023-12-29T05:52:53.320Z,20.98
2023-12-29T05:55:20.438Z,21.15
2023-12-29T05:57:47.675Z,22.20
2023-12-29T06:00:15.653Z,18.27
2023-12-29T06:02:43.467Z,23.63
2023-12-29T06:05:15.953Z,22.35
2023-12-29T06:07:43.182Z,25.05
2023-12-29T06:10:10.880Z,26.33
2023-12-29T06:12:38.583Z,24.30
2023-12-29T06:15:05.719Z,24.80
2023-12-29T06:17:33.704Z,25.77
2023-12-29T06:20:00.697Z,25.25
2023-12-29T06:22:28.256Z,26.55
2023-12-29T06:24:55.103Z,22.75
2023-12-29T06:27:22.371Z,22.70
2023-12-29T06:29:49.178Z,19.20
2023-12-29T06:32:16.267Z,21.23
2023-12-29T06:34:43.132Z,17.85
2023-12-29T06:37:10.403Z,16.77
2023-12-29T06:39:37.308Z,16.95
2023-12-29T06:42:04.689Z,16.75
2023-12-29T06:44:31.451Z,15.82
2023-12-29T06:46:58.548Z,16.65
2023-12-29T06:49:25.465Z,15.30
2023-12-29T06:51:52.862Z,13.25
2023-12-29T06:54:19.665Z,14.57
2023-12-29T06:56:46.891Z,14.10
2023-12-29T06:59:13.810Z,20.77
2023-12-29T07:01:42.268Z,18.83
2023-12-29T07:04:11.481Z,24.25
2023-12-29T07:06:38.752Z,20.65
2023-12-29T07:09:05.951Z,26.48
2023-12-29T07:11:33.023Z,27.13
2023-12-29T07:13:59.840Z,26.65
2023-12-29T07:16:27.215Z,31.42
2023-12-29T07:18:54.208Z,30.75
2023-12-29T07:21:21.662Z,28.25
2023-12-29T07:23:48.480Z,32.05
2023-12-29T07:26:15.624Z,33.22
2023-12-29T07:28:42.411Z,31.25
2023-12-29T07:31:09.734Z,31.23
2023-12-29T07:33:36.848Z,31.80
2023-12-29T07:36:04.396Z,29.58
2023-12-29T07:38:31.188Z,24.83
2023-12-29T07:40:58.276Z,24.05
2023-12-29T07:43:25.089Z,25.08
2023-12-29T07:45:52.492Z,29.65
2023-12-29T07:48:19.454Z,27.50
2023-12-29T07:50:46.711Z,26.05
2023-12-29T07:53:13.460Z,27.05
2023-12-29T07:55:41.246Z,27.40
2023-12-29T07:58:11.195Z,29.35
2023-12-29T08:00:39.045Z,27.48
2023-12-29T08:03:06.926Z,24.92
2023-12-29T08:05:35.133Z,25.90
2023-12-29T08:08:02.218Z,26.02
2023-12-29T08:10:29.563Z,20.90
2023-12-29T08:12:56.452Z,20.77
2023-12-29T08:15:23.871Z,23.15
2023-12-29T08:17:50.788Z,19.85
2023-12-29T08:20:17.988Z,20.42
2023-12-29T08:22:44.749Z,19.73
2023-12-29T08:25:12.317Z,22.75
2023-12-29T08:27:39.178Z,22.58
2023-12-29T08:30:07.066Z,24.55
2023-12-29T08:32:34.710Z,21.85
2023-12-29T08:35:02.120Z,24.45
2023-12-29T08:37:29.004Z,25.67
2023-12-29T08:39:56.655Z,28.70
2023-12-29T08:42:24.262Z,24.80
2023-12-29T08:44:51.414Z,28.85
2023-12-29T08:47:18.173Z,30.65
2023-12-29T08:49:45.315Z,29.55
2023-12-29T08:52:12.308Z,29.05
2023-12-29T08:54:39.522Z,26.35
2023-12-29T08:57:07.917Z,27.08
2023-12-29T08:59:35.055Z,32.65
2023-12-29T09:02:01.977Z,29.55
2023-12-29T09:04:29.193Z,27.52
2023-12-29T09:06:56.018Z,26.58
2023-12-29T09:09:23.199Z,26.88
2023-12-29T09:11:49.979Z,24.52
2023-12-29T09:14:17.657Z,19.30
2023-12-29T09:16:47.555Z,23.42
2023-12-29T09:19:22.926Z,17.52
2023-12-29T09:21:58.166Z,22.02
2023-12-29T09:24:25.829Z,17.02
2023-12-29T09:26:53.493Z,16.88
2023-12-29T09:29:20.598Z,16.80
2023-12-29T09:31:47.461Z,18.05
2023-12-29T09:34:14.712Z,19.73
2023-12-29T09:36:41.636Z,17.73
2023-12-29T09:39:09.214Z,17.73
2023-12-29T09:41:36.007Z,16.55
2023-12-29T09:44:03.132Z,16.17
2023-12-29T09:46:30.064Z,15.18
2023-12-29T09:48:57.463Z,16.27
2023-12-29T09:51:25.732Z,16.90
2023-12-29T09:53:53.271Z,16.80
2023-12-29T09:56:20.440Z,20.75
2023-12-29T09:58:49.000Z,21.75
2023-12-29T10:01:15.943Z,27.42
2023-12-29T10:03:43.408Z,25.90
2023-12-29T10:06:10.534Z,24.02
2023-12-29T10:08:37.749Z,28.13
2023-12-29T10:11:04.654Z,22.35
2023-12-29T10:13:32.033Z,26.10
2023-12-29T10:16:05.434Z,26.45
2023-12-29T10:18:39.587Z,23.10
2023-12-29T10:21:20.972Z,18.63
2023-12-29T10:23:56.066Z,23.55
2023-12-29T10:26:22.847Z,20.00
2023-12-29T10:28:50.003Z,19.15
2023-12-29T10:31:19.746Z,22.50
2023-12-29T10:33:52.793Z,22.00
2023-12-29T10:36:19.728Z,17.15
2023-12-29T10:38:46.966Z,17.25
2023-12-29T10:41:18.084Z,16.65
2023-12-29T10:43:48.385Z,15.52
2023-12-29T10:46:16.335Z,14.32
2023-12-29T10:48:43.847Z,11.85
2023-12-29T10:51:10.858Z,12.23
2023-12-29T10:53:41.287Z,14.73
2023-12-29T10:56:23.884Z,11.77
2023-12-29T10:59:04.400Z,9.98
2023-12-29T11:01:40.736Z,11.10
2023-12-29T11:04:10.930Z,11.75
2023-12-29T11:06:47.960Z,9.85
2023-12-29T11:09:15.307Z,11.98
2023-12-29T11:11:42.263Z,10.60
2023-12-29T11:14:11.123Z,11.57
2023-12-29T11:16:37.917Z,8.93
2023-12-29T11:19:05.246Z,10.10
2023-12-29T11:21:32.058Z,8.80
2023-12-29T11:23:59.396Z,7.95
2023-12-29T11:26:26.178Z,8.95
2023-12-29T11:28:54.261Z,7.50
2023-12-29T11:31:21.150Z,7.25
2023-12-29T11:33:52.134Z,6.70
2023-12-29T11:36:33.166Z,5.47
2023-12-29T11:39:19.466Z,6.50
2023-12-29T11:42:00.750Z,5.13
2023-12-29T11:44:28.684Z,5.70
2023-12-29T11:46:56.795Z,5.70
2023-12-29T11:49:24.130Z,4.85
2023-12-29T11:51:51.126Z,4.88
2023-12-29T11:54:25.454Z,3.65
2023-12-29T11:56:52.964Z,4.70
2023-12-29T11:59:21.236Z,4.60
2023-12-29T12:01:50.221Z,2.67
2023-12-29T12:04:43.304Z,3.13
2023-12-29T12:07:23.194Z,3.72
2023-12-29T12:09:51.159Z,4.00
2023-12-29T12:12:41.766Z,4.30
2023-12-29T12:15:30.819Z,3.50
2023-12-29T12:17:58.344Z,4.05
2023-12-29T12:20:25.905Z,3.35
2023-12-29T12:23:00.625Z,3.00
2023-12-29T12:25:29.406Z,4.50
2023-12-29T12:27:57.066Z,3.67
2023-12-29T12:30:24.227Z,4.03
2023-12-29T12:33:04.928Z,6.07
2023-12-29T12:35:32.772Z,5.78
2023-12-29T12:38:12.252Z,3.97
2023-12-29T12:40:39.733Z,3.90
2023-12-29T12:43:07.810Z,4.80
2023-12-29T12:45:36.341Z,4.20
2023-12-29T12:48:05.302Z,7.25
2023-12-29T12:50:32.633Z,4.53
2023-12-29T12:52:59.884Z,5.05
2023-12-29T12:55:27.192Z,5.07
2023-12-29T12:57:55.641Z,6.00
2023-12-29T13:00:22.880Z,6.32
2023-12-29T13:02:50.181Z,7.68
2023-12-29T13:05:17.777Z,7.63
2023-12-29T13:07:44.751Z,5.70
2023-12-29T13:10:12.059Z,6.22
2023-12-29T13:12:39.531Z,7.00
2023-12-29T13:15:11.691Z,8.40
2023-12-29T13:17:38.580Z,7.10
2023-12-29T13:20:07.743Z,7.90
2023-12-29T13:22:35.804Z,8.10
2023-12-29T13:25:03.441Z,8.90
2023-12-29T13:27:30.280Z,10.00
2023-12-29T13:29:57.348Z,9.20
2023-12-29T13:32:29.616Z,9.50
2023-12-29T13:35:07.505Z,10.02
2023-12-29T13:37:45.656Z,9.45
2023-12-29T13:40:43.772Z,10.55
2023-12-29T13:43:12.105Z,9.05
2023-12-29T13:45:41.878Z,7.68
2023-12-29T13:48:10.626Z,9.65
2023-12-29T13:50:37.848Z,8.27
2023-12-29T13:53:05.020Z,10.63
2023-12-29T13:55:32.337Z,9.00
2023-12-29T13:58:00.265Z,7.55
2023-12-29T14:00:28.034Z,9.02
2023-12-29T14:02:57.575Z,8.73
2023-12-29T14:05:40.610Z,8.07
2023-12-29T14:08:28.534Z,9.55
2023-12-29T14:10:55.659Z,11.32
2023-12-29T14:13:22.509Z,10.18
2023-12-29T14:15:53.012Z,10.63
2023-12-29T14:18:23.055Z,13.82
2023-12-29T14:20:51.200Z,13.98
2023-12-29T14:23:21.164Z,15.82
2023-12-29T14:25:48.500Z,13.07
2023-12-29T14:28:19.589Z,13.93
2023-12-29T14:30:47.217Z,17.00
2023-12-29T14:33:14.258Z,14.98
2023-12-29T14:35:41.374Z,14.98
2023-12-29T14:38:08.149Z,19.30
2023-12-29T14:40:35.929Z,12.43
2023-12-29T14:43:03.111Z,12.27
2023-12-29T14:45:30.956Z,13.68
2023-12-29T14:50:26.303Z,18.02
2023-12-29T14:52:53.649Z,11.88
2023-12-29T14:55:21.887Z,12.23
2023-12-29T14:57:48.900Z,12.15
2023-12-29T15:00:16.648Z,15.40
2023-12-29T15:02:44.170Z,14.90
2023-12-29T15:05:11.672Z,23.17
2023-12-29T15:07:38.456Z,22.83
2023-12-29T15:10:06.217Z,34.00
2023-12-29T15:12:33.027Z,38.55
2023-12-29T15:15:00.267Z,46.22
2023-12-29T15:17:27.100Z,43.90
2023-12-29T15:19:54.257Z,38.65
2023-12-29T15:22:22.764Z,41.60
2023-12-29T15:24:51.137Z,39.72
2023-12-29T15:27:17.938Z,40.10
2023-12-29T15:29:45.078Z,38.47
2023-12-29T15:32:11.838Z,39.88
2023-12-29T15:34:39.033Z,37.53
2023-12-29T15:37:07.199Z,38.13
2023-12-29T15:39:34.312Z,41.42
2023-12-29T15:42:01.667Z,40.95
2023-12-29T15:44:28.747Z,41.75
2023-12-29T15:46:56.241Z,42.88
2023-12-29T15:49:23.587Z,43.95
2023-12-29T15:51:50.571Z,43.00
2023-12-29T15:54:17.648Z,45.33
2023-12-29T15:56:44.383Z,39.97
2023-12-29T15:59:11.589Z,42.03
2023-12-29T16:01:38.397Z,37.70
2023-12-29T16:04:05.848Z,34.28
2023-12-29T16:06:32.976Z,35.25
2023-12-29T16:09:00.681Z,35.40
2023-12-29T16:11:29.052Z,33.85
2023-12-29T16:13:56.343Z,34.45
2023-12-29T16:16:28.500Z,30.85
2023-12-29T16:18:55.854Z,30.63
2023-12-29T16:21:22.705Z,26.80
2023-12-29T16:23:49.791Z,29.90
2023-12-29T16:26:17.262Z,24.10
2023-12-29T16:28:45.496Z,24.48
2023-12-29T16:31:12.546Z,22.30
2023-12-29T16:33:40.466Z,22.13
2023-12-29T16:36:16.385Z,19.83
2023-12-29T16:38:50.380Z,18.98
2023-12-29T16:41:17.635Z,20.13
2023-12-29T16:43:44.874Z,20.77
2023-12-29T16:46:11.780Z,20.77
2023-12-29T16:48:38.962Z,16.73
2023-12-29T16:51:09.011Z,23.10
2023-12-29T16:53:36.569Z,19.15
2023-12-29T16:56:04.151Z,16.90
2023-12-29T16:58:32.136Z,16.88
2023-12-29T17:00:59.634Z,14.10
2023-12-29T17:03:27.888Z,15.18
2023-12-29T17:05:54.716Z,15.45
2023-12-29T17:08:21.842Z,14.23
2023-12-29T17:10:48.609Z,13.30
2023-12-29T17:13:15.819Z,15.45
2023-12-29T17:15:42.698Z,14.50
2023-12-29T17:18:09.837Z,13.35
2023-12-29T17:20:37.066Z,17.00
2023-12-29T17:23:04.285Z,13.70
2023-12-29T17:25:33.287Z,15.00
2023-12-29T17:28:02.109Z,13.93
2023-12-29T17:30:28.919Z,12.48
2023-12-29T17:32:56.069Z,12.90
2023-12-29T17:35:24.763Z,13.63
2023-12-29T17:37:51.905Z,13.93
2023-12-29T17:40:18.718Z,11.82
2023-12-29T17:42:45.875Z,15.38
2023-12-29T17:45:13.309Z,15.80
2023-12-29T17:47:41.444Z,16.58
2023-12-29T17:50:09.069Z,13.00
2023-12-29T17:52:36.273Z,17.27
2023-12-29T17:55:03.126Z,14.48
2023-12-29T17:57:30.292Z,16.20
2023-12-29T17:59:57.095Z,15.30
2023-12-29T18:02:25.227Z,13.98
2023-12-29T18:04:51.990Z,16.88
2023-12-29T18:07:19.073Z,14.75
2023-12-29T18:09:45.908Z,15.50
2023-12-29T18:12:13.358Z,14.10
2023-12-29T18:14:44.399Z,13.63
2023-12-29T18:17:12.347Z,13.98
2023-12-29T18:19:39.924Z,14.38
2023-12-29T18:22:07.144Z,15.98
2023-12-29T18:24:34.397Z,13.18
2023-12-29T18:27:02.321Z,15.65
2023-12-29T18:29:29.159Z,14.98
2023-12-29T18:32:18.153Z,13.75
2023-12-29T18:34:44.043Z,14.70
2023-12-29T18:37:11.686Z,14.52
2023-12-29T18:39:39.921Z,12.98
2023-12-29T18:42:07.173Z,14.27
2023-12-29T18:44:37.890Z,15.63
2023-12-29T18:47:05.170Z,13.32
2023-12-29T18:49:32.325Z,13.77
2023-12-29T18:51:59.635Z,13.68
2023-12-29T18:54:29.642Z,11.90
2023-12-29T18:56:56.985Z,13.70
2023-12-29T18:59:23.873Z,12.30
2023-12-29T19:01:53.318Z,11.45
2023-12-29T19:04:20.322Z,14.45
2023-12-29T19:06:48.116Z,12.80
2023-12-29T19:09:15.151Z,13.48
2023-12-29T19:11:43.005Z,16.10
2023-12-29T19:14:09.905Z,15.88
2023-12-29T19:16:37.157Z,17.23
2023-12-29T19:19:04.086Z,16.45
2023-12-29T19:21:33.467Z,22.15
2023-12-29T19:24:02.275Z,19.40
2023-12-29T19:26:30.348Z,21.50
2023-12-29T19:28:57.289Z,24.90
2023-12-29T19:31:26.278Z,22.38
2023-12-29T19:33:56.219Z,21.27
2023-12-29T19:36:23.396Z,24.08
2023-12-29T19:38:50.852Z,17.58
2023-12-29T19:41:21.969Z,23.48
2023-12-29T19:43:48.957Z,21.83
2023-12-29T19:46:16.253Z,23.13
2023-12-29T19:48:44.107Z,22.20
2023-12-29T19:51:12.272Z,24.70
2023-12-29T19:53:39.255Z,23.85
2023-12-29T19:56:06.700Z,25.50
2023-12-29T19:58:33.660Z,25.48
2023-12-29T20:01:02.744Z,27.65
2023-12-29T20:03:34.473Z,28.55
2023-12-29T20:06:01.792Z,27.10
2023-12-29T20:08:28.695Z,28.58
2023-12-29T20:10:58.639Z,30.85
2023-12-29T20:13:26.185Z,27.42
2023-12-29T20:15:53.352Z,28.15
2023-12-29T20:18:20.191Z,27.23
2023-12-29T20:20:47.426Z,25.10
2023-12-29T20:23:14.468Z,27.08
2023-12-29T20:25:45.606Z,28.25
2023-12-29T20:28:14.344Z,24.50
2023-12-29T20:30:42.370Z,24.73
2023-12-29T20:33:09.313Z,25.98
2023-12-29T20:35:42.399Z,23.70
2023-12-29T20:38:14.139Z,23.98
2023-12-29T20:40:41.975Z,19.60
2023-12-29T20:43:08.824Z,18.25
2023-12-29T20:45:46.509Z,22.08
2023-12-29T20:48:13.913Z,17.58
2023-12-29T20:50:41.463Z,15.68
2023-12-29T20:53:09.554Z,16.13
2023-12-29T20:55:37.819Z,17.20
2023-12-29T20:58:04.641Z,13.93
2023-12-29T21:00:31.869Z,16.27
2023-12-29T21:02:59.412Z,18.38
2023-12-29T21:05:28.802Z,16.92
2023-12-29T21:07:55.700Z,19.50
2023-12-29T21:10:23.169Z,19.33
2023-12-29T21:12:50.085Z,20.30
2023-12-29T21:15:17.328Z,18.48
2023-12-29T21:17:44.255Z,16.52
2023-12-29T21:20:14.608Z,17.10
2023-12-29T21:22:43.584Z,15.80
2023-12-29T21:25:10.709Z,15.85
2023-12-29T21:27:37.530Z,16.40
2023-12-29T21:30:06.329Z,16.00
2023-12-29T21:32:34.994Z,18.67
2023-12-29T21:35:02.822Z,14.57
2023-12-29T21:37:31.794Z,14.80
2023-12-29T21:39:59.117Z,15.40
2023-12-29T21:42:25.940Z,15.13
2023-12-29T21:44:53.495Z,14.20
2023-12-29T21:47:20.282Z,11.52
2023-12-29T21:49:47.568Z,10.48
2023-12-29T21:52:14.423Z,11.07
2023-12-29T21:54:43.123Z,10.85
2023-12-29T21:57:10.979Z,10.13
2023-12-29T21:59:38.191Z,11.18
2023-12-29T22:02:05.004Z,11.07
2023-12-29T22:04:32.128Z,10.23
2023-12-29T22:06:58.978Z,9.20
2023-12-29T22:09:27.660Z,8.98
2023-12-29T22:11:55.023Z,10.35
2023-12-29T22:14:22.197Z,8.57
2023-12-29T22:16:49.121Z,9.13
2023-12-29T22:19:16.759Z,8.82
2023-12-29T22:21:44.674Z,8.73
2023-12-29T22:24:11.827Z,9.68
2023-12-29T22:26:41.140Z,9.55
2023-12-29T22:29:08.316Z,9.40
2023-12-29T22:31:35.636Z,9.45
2023-12-29T22:34:03.043Z,7.53
2023-12-29T22:36:29.932Z,8.10
2023-12-29T22:38:57.018Z,8.13
2023-12-29T22:41:24.226Z,7.15
2023-12-29T22:43:51.302Z,7.78
2023-12-29T22:46:22.360Z,7.63
2023-12-29T22:48:52.690Z,10.43
2023-12-29T22:51:19.594Z,7.68
2023-12-29T22:53:46.770Z,10.15
2023-12-29T22:56:13.580Z,8.27
2023-12-29T22:58:41.068Z,8.60
2023-12-29T23:01:08.659Z,9.23
2023-12-29T23:03:35.872Z,8.85
2023-12-29T23:06:02.649Z,8.50
2023-12-29T23:08:29.801Z,9.05
2023-12-29T23:10:56.568Z,8.95
2023-12-29T23:13:23.759Z,8.20
2023-12-29T23:15:50.958Z,7.93
2023-12-29T23:18:18.329Z,7.97
2023-12-29T23:20:45.170Z,8.65
2023-12-29T23:23:12.353Z,8.57
2023-12-29T23:25:39.157Z,8.18
2023-12-29T23:28:06.281Z,7.60
2023-12-29T23:30:33.175Z,6.72
2023-12-29T23:33:00.794Z,7.85
2023-12-29T23:35:28.026Z,8.18
2023-12-29T23:37:55.531Z,7.85
2023-12-29T23:40:22.525Z,6.80
2023-12-29T23:42:50.014Z,6.72
2023-12-29T23:45:16.819Z,6.85
2023-12-29T23:47:44.480Z,8.50
2023-12-29T23:50:11.289Z,7.45
2023-12-29T23:52:38.395Z,7.32
2023-12-29T23:55:06.191Z,9.88
2023-12-29T23:57:33.329Z,9.18
